Time,TemperatureF,DewpointF,PressureIn,WindDirection,WindDirectionDegrees,WindSpeedMPH,WindSpeedGustMPH,Humidity,HourlyPrecipIn,Conditions,Clouds,dailyrainin,SoftwareType,DateUTC
2013-10-27 00:13:00,48.0,30.0,-100.00,SSE,151,9.0,10.0,51,0.00,,,0.00,,2013-10-27 06:13:00,
2013-10-27 00:42:00,47.0,30.0,-100.00,SSE,154,10.0,11.0,53,0.00,,,0.00,,2013-10-27 06:42:00,
2013-10-27 01:11:00,44.0,30.0,-100.00,SSE,148,7.0,8.0,57,0.00,,,0.00,,2013-10-27 07:11:00,
2013-10-27 01:42:00,46.0,31.0,-100.00,SSW,200,6.0,9.0,56,0.00,,,0.00,,2013-10-27 07:42:00,
2013-10-27 02:11:00,44.0,33.0,-100.00,SSW,195,5.0,6.0,64,0.00,,,0.00,,2013-10-27 08:11:00,
2013-10-27 02:42:00,42.0,32.0,-100.00,SSW,200,2.0,3.0,67,0.00,,,0.00,,2013-10-27 08:42:00,
2013-10-27 03:12:00,43.0,32.0,-100.00,SE,137,0.0,0.0,66,0.00,,,0.00,,2013-10-27 09:12:00,
2013-10-27 03:43:00,40.0,30.0,-100.00,SE,144,7.0,8.0,66,0.00,,,0.00,,2013-10-27 09:43:00,
2013-10-27 04:12:00,39.0,30.0,-100.00,SSE,155,7.0,7.0,69,0.00,,,0.00,,2013-10-27 10:12:00,
2013-10-27 04:42:00,38.0,30.0,-100.00,SE,145,7.0,8.0,71,0.00,,,0.00,,2013-10-27 10:42:00,
2013-10-27 05:12:00,38.0,30.0,-100.00,SSE,150,6.0,7.0,73,0.00,,,0.00,,2013-10-27 11:12:00,
2013-10-27 05:42:00,39.0,30.0,-100.00,SW,222,1.0,2.0,70,0.00,,,0.00,,2013-10-27 11:42:00,
2013-10-27 06:12:00,40.0,33.0,-100.00,East,99,2.0,3.0,77,0.00,,,0.00,,2013-10-27 12:12:00,
2013-10-27 06:42:00,38.0,32.0,-100.00,SE,128,6.0,6.0,82,0.00,,,0.00,,2013-10-27 12:42:00,
2013-10-27 06:52:00,38.0,32.0,-100.00,SE,128,6.0,6.0,82,0.00,,,0.00,,2013-10-27 12:52:00,
2013-10-27 07:12:00,37.0,29.0,-100.00,SE,130,4.0,6.0,72,0.00,,,0.00,,2013-10-27 13:12:00,
2013-10-27 07:42:00,35.0,29.0,-100.00,SW,216,3.0,4.0,80,0.00,,,0.00,,2013-10-27 13:42:00,
2013-10-27 08:11:00,35.0,29.0,-100.00,SSE,165,5.0,7.0,78,0.00,,,0.00,,2013-10-27 14:11:00,
2013-10-27 08:42:00,38.0,29.0,-100.00,SE,141,5.0,7.0,71,0.00,,,0.00,,2013-10-27 14:42:00,
2013-10-27 09:11:00,32.0,28.0,-100.00,SSW,203,4.0,5.0,85,0.00,,,0.00,,2013-10-27 15:11:00,
2013-10-27 09:44:00,38.0,32.0,-100.00,SSW,213,2.0,2.0,80,0.00,,,0.00,,2013-10-27 15:44:00,
2013-10-27 12:12:00,56.0,36.0,-100.00,West,268,5.0,7.0,48,0.00,,,0.00,,2013-10-27 18:12:00,
2013-10-27 13:42:00,63.0,33.0,-100.00,NW,313,4.0,5.0,32,0.00,,,0.00,,2013-10-27 19:42:00,
2013-10-27 14:12:00,64.0,33.0,-100.00,NW,305,7.0,9.0,31,0.00,,,0.00,,2013-10-27 20:12:00,
2013-10-27 14:43:00,66.0,31.0,-100.00,West,261,4.0,6.0,27,0.00,,,0.00,,2013-10-27 20:43:00,
2013-10-27 15:11:00,67.0,28.0,-100.00,WNW,288,3.0,7.0,23,0.00,,,0.00,,2013-10-27 21:11:00,
2013-10-27 15:43:00,68.0,29.0,-100.00,NW,306,4.0,6.0,23,0.00,,,0.00,,2013-10-27 21:43:00,
2013-10-27 16:13:00,68.0,24.0,-100.00,SE,145,4.0,6.0,19,0.00,,,0.00,,2013-10-27 22:13:00,
2013-10-27 16:43:00,67.0,27.0,-100.00,West,280,4.0,7.0,22,0.00,,,0.00,,2013-10-27 22:43:00,
2013-10-27 17:11:00,67.0,27.0,-100.00,SSE,157,14.0,17.0,22,0.00,,,0.00,,2013-10-27 23:11:00,
2013-10-27 17:42:00,65.0,28.0,-100.00,SE,131,11.0,15.0,25,0.00,,,0.00,,2013-10-27 23:42:00,
2013-10-27 18:11:00,63.0,27.0,-100.00,SE,138,11.0,12.0,26,0.00,,,0.00,,2013-10-28 00:11:00,
2013-10-27 18:43:00,61.0,26.0,-100.00,SE,136,10.0,11.0,26,0.00,,,0.00,,2013-10-28 00:43:00,
2013-10-27 19:12:00,61.0,25.0,-100.00,SE,143,13.0,16.0,25,0.00,,,0.00,,2013-10-28 01:12:00,
2013-10-27 19:21:00,61.0,25.0,-100.00,SE,143,13.0,16.0,25,0.00,,,0.00,,2013-10-28 01:21:00,
2013-10-27 19:42:00,58.0,26.0,-100.00,SE,130,8.0,11.0,29,0.00,,,0.00,,2013-10-28 01:42:00,
2013-10-27 20:12:00,59.0,27.0,-100.00,SE,138,13.0,17.0,29,0.00,,,0.00,,2013-10-28 02:12:00,
2013-10-27 20:42:00,58.0,27.0,-100.00,SE,134,7.0,11.0,31,0.00,,,0.00,,2013-10-28 02:42:00,
2013-10-27 21:11:00,58.0,28.0,-100.00,SE,134,11.0,14.0,31,0.00,,,0.00,,2013-10-28 03:11:00,
2013-10-27 21:44:00,58.0,28.0,-100.00,ESE,119,6.0,9.0,32,0.00,,,0.00,,2013-10-28 03:44:00,
2013-10-27 22:13:00,60.0,26.0,-100.00,South,174,2.0,2.0,28,0.00,,,0.00,,2013-10-28 04:13:00,
2013-10-27 22:43:00,57.0,27.0,-100.00,NE,48,1.0,2.0,32,0.00,,,0.00,,2013-10-28 04:43:00,
2013-10-27 23:13:00,56.0,27.0,-100.00,NE,48,5.0,6.0,33,0.00,,,0.00,,2013-10-28 05:13:00,
2013-10-27 23:43:00,56.0,28.0,-100.00,ENE,68,4.0,6.0,33,0.00,,,0.00,,2013-10-28 05:43:00,